createdAt,value
2023-09-21T00:01:25.837Z,17.92
2023-09-21T00:03:56.760Z,17.88
2023-09-21T00:06:26.654Z,17.90
2023-09-21T00:08:57.398Z,17.92
2023-09-21T00:11:27.984Z,17.86
2023-09-21T00:13:56.678Z,17.83
2023-09-21T00:16:28.688Z,17.89
2023-09-21T00:18:59.859Z,17.90
2023-09-21T00:21:32.412Z,17.77
2023-09-21T00:24:01.551Z,17.69
2023-09-21T00:26:30.758Z,17.66
2023-09-21T00:29:00.335Z,17.62
2023-09-21T00:31:31.016Z,17.57
2023-09-21T00:34:01.360Z,17.50
2023-09-21T00:36:31.482Z,17.50
2023-09-21T00:39:02.457Z,17.42
2023-09-21T00:41:33.924Z,17.41
2023-09-21T00:44:09.552Z,17.47
2023-09-21T00:46:39.914Z,17.42
2023-09-21T00:49:11.351Z,17.43
2023-09-21T00:51:41.385Z,17.40
2023-09-21T00:54:13.800Z,17.42
2023-09-21T00:56:43.710Z,17.41
2023-09-21T00:59:15.772Z,17.38
2023-09-21T01:01:45.514Z,17.36
2023-09-21T01:04:17.998Z,17.36
2023-09-21T01:06:51.114Z,17.37
2023-09-21T01:09:21.285Z,17.39
2023-09-21T01:11:54.410Z,17.36
2023-09-21T01:14:24.819Z,17.31
2023-09-21T01:16:55.515Z,17.26
2023-09-21T01:19:28.132Z,17.29
2023-09-21T01:22:04.481Z,17.28
2023-09-21T01:24:35.136Z,17.29
2023-09-21T01:27:05.562Z,17.27
2023-09-21T01:29:34.430Z,17.33
2023-09-21T01:32:04.628Z,17.39
2023-09-21T01:34:38.405Z,17.37
2023-09-21T01:37:09.627Z,17.36
2023-09-21T01:39:40.170Z,17.37
2023-09-21T01:42:09.950Z,17.29
2023-09-21T01:44:38.970Z,17.34
2023-09-21T01:47:13.032Z,17.33
2023-09-21T01:49:42.358Z,17.38
2023-09-21T01:52:12.887Z,17.40
2023-09-21T01:54:43.123Z,17.37
2023-09-21T01:57:14.632Z,17.35
2023-09-21T01:59:44.688Z,17.28
2023-09-21T02:02:15.159Z,17.24
2023-09-21T02:04:43.993Z,17.15
2023-09-21T02:07:14.232Z,17.12
2023-09-21T02:09:45.754Z,17.12
2023-09-21T02:12:17.436Z,17.05
2023-09-21T02:14:48.306Z,17.02
2023-09-21T02:17:18.295Z,17.06
2023-09-21T02:19:47.540Z,17.06
2023-09-21T02:22:16.344Z,17.00
2023-09-21T02:24:47.703Z,17.02
2023-09-21T02:27:17.983Z,16.93
2023-09-21T02:29:48.365Z,16.89
2023-09-21T02:32:17.220Z,16.87
2023-09-21T02:34:46.688Z,16.80
2023-09-21T02:37:15.497Z,16.84
2023-09-21T02:39:46.521Z,16.84
2023-09-21T02:42:15.787Z,16.88
2023-09-21T02:44:47.093Z,16.85
2023-09-21T02:47:15.828Z,16.84
2023-09-21T02:49:45.160Z,16.85
2023-09-21T02:52:17.581Z,16.95
2023-09-21T02:54:48.118Z,16.91
2023-09-21T02:57:23.711Z,16.96
2023-09-21T02:59:52.579Z,16.88
2023-09-21T03:02:21.823Z,16.84
2023-09-21T03:04:53.268Z,16.87
2023-09-21T03:07:23.800Z,16.87
2023-09-21T03:09:55.945Z,16.85
2023-09-21T03:12:25.366Z,16.84
2023-09-21T03:14:57.125Z,16.83
2023-09-21T03:17:26.884Z,16.79
2023-09-21T03:19:59.257Z,16.78
2023-09-21T03:22:30.164Z,16.75
2023-09-21T03:25:03.302Z,16.76
2023-09-21T03:27:32.344Z,16.65
2023-09-21T03:30:02.382Z,16.57
2023-09-21T03:32:31.933Z,16.51
2023-09-21T03:35:01.598Z,16.51
2023-09-21T03:37:32.442Z,16.56
2023-09-21T03:40:04.149Z,16.46
2023-09-21T03:42:34.298Z,16.41
2023-09-21T03:45:05.352Z,16.40
2023-09-21T03:47:35.413Z,16.34
2023-09-21T03:50:07.853Z,16.35
2023-09-21T03:52:38.299Z,16.49
2023-09-21T03:55:11.742Z,16.45
2023-09-21T03:57:40.572Z,16.39
2023-09-21T04:00:19.941Z,16.42
2023-09-21T04:02:48.957Z,16.42
2023-09-21T04:05:20.568Z,16.36
2023-09-21T04:07:50.466Z,16.51
2023-09-21T04:10:23.143Z,16.40
2023-09-21T04:12:58.613Z,16.30
2023-09-21T04:15:28.579Z,16.30
2023-09-21T04:18:00.772Z,16.31
2023-09-21T04:20:32.827Z,16.23
2023-09-21T04:23:02.500Z,16.25
2023-09-21T04:25:34.082Z,16.31
2023-09-21T04:28:07.065Z,16.30
2023-09-21T04:30:37.029Z,16.37
2023-09-21T04:33:08.413Z,16.38
2023-09-21T04:35:38.183Z,16.53
2023-09-21T04:38:09.809Z,16.56
2023-09-21T04:40:42.098Z,16.59
2023-09-21T04:43:14.203Z,16.52
2023-09-21T04:45:43.694Z,16.62
2023-09-21T04:48:14.065Z,16.63
2023-09-21T04:50:49.069Z,16.41
2023-09-21T04:53:21.152Z,16.38
2023-09-21T04:55:54.330Z,16.28
2023-09-21T04:58:25.288Z,16.39
2023-09-21T05:00:54.560Z,16.45
2023-09-21T05:03:24.039Z,16.42
2023-09-21T05:05:54.137Z,16.40
2023-09-21T05:08:24.170Z,16.47
2023-09-21T05:10:54.357Z,16.51
2023-09-21T05:13:23.435Z,16.61
2023-09-21T05:15:53.115Z,16.65
2023-09-21T05:18:22.049Z,16.71
2023-09-21T05:20:51.722Z,16.63
2023-09-21T05:23:21.273Z,16.53
2023-09-21T05:25:51.280Z,16.40
2023-09-21T05:28:21.967Z,16.41
2023-09-21T05:30:55.372Z,16.50
2023-09-21T05:33:25.620Z,16.66
2023-09-21T05:35:56.883Z,16.72
2023-09-21T05:38:27.345Z,16.71
2023-09-21T05:40:56.401Z,16.73
2023-09-21T05:43:28.125Z,16.78
2023-09-21T05:45:58.586Z,16.84
2023-09-21T05:48:28.404Z,16.80
2023-09-21T05:50:57.338Z,16.91
2023-09-21T05:53:26.811Z,16.96
2023-09-21T05:55:56.027Z,17.06
2023-09-21T05:58:26.122Z,17.14
2023-09-21T06:00:55.190Z,17.22
2023-09-21T06:03:27.954Z,17.33
2023-09-21T06:05:57.408Z,17.50
2023-09-21T06:08:27.148Z,17.57
2023-09-21T06:10:58.330Z,17.56
2023-09-21T06:15:24.607Z,17.68
2023-09-21T06:17:54.680Z,17.72
2023-09-21T06:20:24.751Z,17.87
2023-09-21T06:22:53.777Z,18.04
2023-09-21T06:25:23.984Z,18.11
2023-09-21T06:27:53.137Z,18.10
2023-09-21T06:30:24.123Z,18.19
2023-09-21T06:32:56.582Z,18.34
2023-09-21T06:35:26.562Z,18.38
2023-09-21T06:37:56.282Z,18.47
2023-09-21T06:40:26.132Z,18.56
2023-09-21T06:42:55.354Z,18.68
2023-09-21T06:45:25.173Z,18.75
2023-09-21T06:47:56.735Z,18.79
2023-09-21T06:50:25.589Z,18.96
2023-09-21T06:52:56.109Z,18.91
2023-09-21T06:55:26.556Z,19.05
2023-09-21T06:57:56.634Z,19.10
2023-09-21T07:00:27.548Z,19.23
2023-09-21T07:02:58.021Z,19.32
2023-09-21T07:05:29.488Z,19.41
2023-09-21T07:07:58.262Z,19.47
2023-09-21T07:10:27.060Z,19.57
2023-09-21T07:12:56.722Z,19.65
2023-09-21T07:15:26.015Z,19.66
2023-09-21T07:17:58.155Z,19.83
2023-09-21T07:20:28.499Z,19.97
2023-09-21T07:22:59.437Z,20.08
2023-09-21T07:25:30.197Z,20.20
2023-09-21T07:28:00.384Z,20.23
2023-09-21T07:30:32.630Z,20.11
2023-09-21T07:33:03.606Z,19.98
2023-09-21T07:35:33.876Z,19.95
2023-09-21T07:38:03.741Z,19.99
2023-09-21T07:40:32.898Z,20.00
2023-09-21T07:43:01.840Z,19.93
2023-09-21T07:45:32.281Z,20.16
2023-09-21T07:48:02.971Z,20.34
2023-09-21T07:50:36.212Z,20.44
2023-09-21T07:53:06.347Z,20.62
2023-09-21T07:55:39.330Z,20.68
2023-09-21T07:58:08.518Z,20.76
2023-09-21T08:00:39.181Z,20.95
2023-09-21T08:03:09.833Z,21.11
2023-09-21T08:05:40.189Z,21.19
2023-09-21T08:08:09.186Z,21.28
2023-09-21T08:10:37.897Z,21.31
2023-09-21T08:13:11.728Z,21.35
2023-09-21T08:15:43.377Z,21.41
2023-09-21T08:18:14.155Z,21.90
2023-09-21T08:20:42.873Z,21.73
2023-09-21T08:23:13.521Z,21.81
2023-09-21T08:25:43.024Z,22.01
2023-09-21T08:28:14.130Z,22.09
2023-09-21T08:30:43.449Z,22.19
2023-09-21T08:33:14.889Z,22.22
2023-09-21T08:35:45.882Z,22.22
2023-09-21T08:38:15.184Z,22.41
2023-09-21T08:40:48.535Z,22.17
2023-09-21T08:43:23.983Z,22.43
2023-09-21T08:45:53.748Z,22.57
2023-09-21T08:48:25.983Z,22.64
2023-09-21T08:51:03.890Z,22.90
2023-09-21T08:53:35.732Z,24.31
2023-09-21T08:56:06.818Z,25.05
2023-09-21T08:58:41.947Z,25.05
2023-09-21T09:01:13.874Z,25.93
2023-09-21T09:03:45.055Z,26.04
2023-09-21T09:06:15.444Z,26.35
2023-09-21T09:08:47.446Z,26.84
2023-09-21T09:11:36.554Z,27.04
2023-09-21T09:14:10.622Z,27.37
2023-09-21T09:16:40.330Z,26.93
2023-09-21T09:19:12.689Z,27.06
2023-09-21T09:21:43.045Z,27.08
2023-09-21T09:24:13.108Z,27.28
2023-09-21T09:26:44.682Z,28.09
2023-09-21T09:29:14.452Z,28.49
2023-09-21T09:31:46.141Z,28.89
2023-09-21T09:34:19.124Z,28.83
2023-09-21T09:36:51.653Z,28.82
2023-09-21T09:39:22.243Z,28.58
2023-09-21T09:41:51.816Z,29.13
2023-09-21T09:44:25.513Z,29.52
2023-09-21T09:46:59.046Z,29.07
2023-09-21T09:49:33.852Z,29.29
2023-09-21T09:52:07.286Z,29.77
2023-09-21T09:54:37.275Z,29.37
2023-09-21T09:57:12.378Z,28.79
2023-09-21T09:59:42.602Z,29.10
2023-09-21T10:02:19.034Z,29.33
2023-09-21T10:04:52.657Z,29.65
2023-09-21T10:07:24.014Z,29.48
2023-09-21T10:09:57.517Z,29.21
2023-09-21T10:12:30.927Z,30.22
2023-09-21T10:15:03.173Z,31.35
2023-09-21T10:17:33.539Z,31.49
2023-09-21T10:20:16.163Z,30.51
2023-09-21T10:22:47.866Z,30.92
2023-09-21T10:25:40.799Z,30.52
2023-09-21T10:28:40.404Z,30.27
2023-09-21T10:31:24.367Z,29.92
2023-09-21T10:34:20.513Z,28.89
2023-09-21T10:36:56.458Z,29.85
2023-09-21T10:39:27.843Z,30.63
2023-09-21T10:41:59.118Z,30.82
2023-09-21T10:44:58.373Z,30.46
2023-09-21T10:47:31.607Z,30.76
2023-09-21T10:50:03.757Z,31.08
2023-09-21T10:52:36.054Z,31.90
2023-09-21T10:55:05.924Z,32.02
2023-09-21T10:57:34.729Z,32.24
2023-09-21T11:00:13.312Z,31.53
2023-09-21T11:02:46.142Z,31.14
2023-09-21T11:05:19.278Z,30.82
2023-09-21T11:07:54.077Z,30.96
2023-09-21T11:10:24.072Z,31.43
2023-09-21T11:12:55.885Z,31.49
2023-09-21T11:15:26.787Z,32.28
2023-09-21T11:17:56.340Z,32.40
2023-09-21T11:20:28.169Z,33.13
2023-09-21T11:23:16.149Z,32.14
2023-09-21T11:25:44.992Z,32.51
2023-09-21T11:28:18.270Z,31.86
2023-09-21T11:30:47.448Z,31.70
2023-09-21T11:33:17.592Z,31.84
2023-09-21T11:35:47.859Z,31.26
2023-09-21T11:38:18.971Z,31.96
2023-09-21T11:40:51.451Z,32.39
2023-09-21T11:43:21.392Z,32.60
2023-09-21T11:45:50.286Z,32.56
2023-09-21T11:48:19.917Z,32.60
2023-09-21T11:50:50.620Z,33.03
2023-09-21T11:53:21.923Z,33.45
2023-09-21T11:55:52.319Z,32.70
2023-09-21T11:58:23.925Z,33.24
2023-09-21T12:00:53.404Z,33.12
2023-09-21T12:03:26.870Z,33.56
2023-09-21T12:05:58.362Z,32.60
2023-09-21T12:08:30.325Z,32.56
2023-09-21T12:10:59.150Z,32.71
2023-09-21T12:13:27.960Z,33.27
2023-09-21T12:16:00.474Z,32.55
2023-09-21T12:18:33.719Z,32.58
2023-09-21T12:21:17.230Z,33.22
2023-09-21T12:23:55.385Z,32.17
2023-09-21T12:26:32.428Z,32.65
2023-09-21T12:29:03.844Z,32.80
2023-09-21T12:31:49.143Z,33.07
2023-09-21T12:34:22.712Z,33.94
2023-09-21T12:36:58.971Z,33.89
2023-09-21T12:39:32.368Z,33.82
2023-09-21T12:42:02.506Z,34.27
2023-09-21T12:44:35.170Z,34.35
2023-09-21T12:47:05.529Z,33.56
2023-09-21T12:49:34.918Z,33.11
2023-09-21T12:52:05.374Z,32.90
2023-09-21T12:54:35.583Z,33.47
2023-09-21T12:57:06.913Z,33.84
2023-09-21T12:59:37.792Z,34.01
2023-09-21T13:02:06.829Z,34.03
2023-09-21T13:04:38.382Z,34.29
2023-09-21T13:07:11.636Z,34.06
2023-09-21T13:09:52.317Z,33.62
2023-09-21T13:12:23.326Z,34.29
2023-09-21T13:15:11.962Z,34.34
2023-09-21T13:17:51.089Z,33.82
2023-09-21T13:20:28.090Z,33.46
2023-09-21T13:22:57.373Z,33.76
2023-09-21T13:25:28.880Z,33.66
2023-09-21T13:27:58.669Z,33.48
2023-09-21T13:30:28.594Z,33.57
2023-09-21T13:32:57.742Z,33.42
2023-09-21T13:35:26.675Z,33.50
2023-09-21T13:37:55.739Z,33.24
2023-09-21T13:40:25.232Z,33.44
2023-09-21T13:42:56.856Z,33.64
2023-09-21T13:45:26.238Z,33.67
2023-09-21T13:49:49.258Z,33.51
2023-09-21T13:52:20.347Z,33.37
2023-09-21T13:55:05.616Z,33.75
2023-09-21T13:57:44.709Z,33.12
2023-09-21T14:00:16.037Z,32.86
2023-09-21T14:02:48.314Z,32.31
2023-09-21T14:05:23.474Z,31.92
2023-09-21T14:07:53.119Z,31.45
2023-09-21T14:10:22.338Z,31.58
2023-09-21T14:12:52.509Z,31.79
2023-09-21T14:15:22.515Z,31.84
2023-09-21T14:17:52.461Z,32.58
2023-09-21T14:20:24.477Z,32.08
2023-09-21T14:22:55.521Z,31.98
2023-09-21T14:25:43.360Z,31.87
2023-09-21T14:28:16.878Z,31.61
2023-09-21T14:30:48.238Z,31.33
2023-09-21T14:33:18.779Z,30.79
2023-09-21T14:35:50.776Z,30.27
2023-09-21T14:38:19.659Z,29.85
2023-09-21T14:40:48.627Z,29.84
2023-09-21T14:43:20.170Z,29.42
2023-09-21T14:45:49.186Z,29.20
2023-09-21T14:48:19.248Z,28.93
2023-09-21T14:50:52.574Z,28.75
2023-09-21T14:53:24.061Z,28.83
2023-09-21T14:55:54.222Z,28.91
2023-09-21T14:58:25.491Z,28.97
2023-09-21T15:00:55.515Z,28.88
2023-09-21T15:03:26.049Z,28.88
2023-09-21T15:05:58.204Z,28.73
2023-09-21T15:08:26.998Z,28.58
2023-09-21T15:10:58.983Z,28.41
2023-09-21T15:13:28.295Z,28.23
2023-09-21T15:15:58.263Z,28.11
2023-09-21T15:18:28.953Z,28.10
2023-09-21T15:21:01.055Z,28.17
2023-09-21T15:23:32.146Z,28.09
2023-09-21T15:26:13.670Z,27.92
2023-09-21T15:28:53.536Z,27.88
2023-09-21T15:31:22.531Z,27.89
2023-09-21T15:33:51.744Z,27.88
2023-09-21T15:36:27.915Z,27.85
2023-09-21T15:38:58.676Z,27.87
2023-09-21T15:41:28.588Z,27.76
2023-09-21T15:43:59.688Z,27.68
2023-09-21T15:46:29.640Z,27.48
2023-09-21T15:48:58.727Z,27.35
2023-09-21T15:51:29.379Z,27.25
2023-09-21T15:53:59.367Z,27.19
2023-09-21T15:56:30.865Z,27.21
2023-09-21T15:59:04.369Z,27.06
2023-09-21T16:01:34.792Z,27.06
2023-09-21T16:04:08.489Z,27.04
2023-09-21T16:06:39.502Z,27.02
2023-09-21T16:09:08.593Z,27.04
2023-09-21T16:11:38.378Z,27.00
2023-09-21T16:14:08.614Z,26.97
2023-09-21T16:16:38.055Z,26.96
2023-09-21T16:19:07.802Z,26.96
2023-09-21T16:21:39.708Z,26.91
2023-09-21T16:24:08.903Z,26.75
2023-09-21T16:26:43.696Z,26.78
2023-09-21T16:29:13.384Z,26.73
2023-09-21T16:31:43.200Z,26.71
2023-09-21T16:34:13.569Z,26.71
2023-09-21T16:36:44.444Z,26.68
2023-09-21T16:39:14.358Z,26.76
2023-09-21T16:41:44.477Z,26.80
2023-09-21T16:44:14.921Z,26.88
2023-09-21T16:46:44.647Z,26.80
2023-09-21T16:49:15.978Z,26.77
2023-09-21T16:51:47.841Z,26.66
2023-09-21T16:54:17.346Z,26.50
2023-09-21T16:56:46.757Z,26.36
2023-09-21T16:59:17.051Z,26.29
2023-09-21T17:01:47.004Z,26.21
2023-09-21T17:04:16.351Z,26.18
2023-09-21T17:06:49.203Z,26.18
2023-09-21T17:09:19.518Z,26.12
2023-09-21T17:11:49.415Z,25.99
2023-09-21T17:14:22.270Z,25.93
2023-09-21T17:16:52.051Z,25.86
2023-09-21T17:19:21.556Z,25.82
2023-09-21T17:21:52.037Z,25.71
2023-09-21T17:24:22.867Z,25.71
2023-09-21T17:26:55.141Z,25.64
2023-09-21T17:29:26.257Z,25.63
2023-09-21T17:31:55.413Z,25.55
2023-09-21T17:34:24.721Z,25.55
2023-09-21T17:36:57.275Z,25.51
2023-09-21T17:39:26.849Z,25.48
2023-09-21T17:42:01.069Z,25.51
2023-09-21T17:44:32.207Z,25.49
2023-09-21T17:47:07.773Z,25.49
2023-09-21T17:49:37.342Z,25.44
2023-09-21T17:52:09.444Z,25.34
2023-09-21T17:54:39.086Z,25.20
2023-09-21T17:57:08.430Z,25.15
2023-09-21T17:59:37.232Z,25.07
2023-09-21T18:02:06.401Z,25.01
2023-09-21T18:04:35.560Z,25.00
2023-09-21T18:07:07.618Z,24.92
2023-09-21T18:09:40.841Z,24.86
2023-09-21T18:12:10.157Z,24.88
2023-09-21T18:14:39.508Z,24.84
2023-09-21T18:17:12.275Z,24.85
2023-09-21T18:19:41.353Z,24.85
2023-09-21T18:22:12.704Z,24.82
2023-09-21T18:24:42.009Z,24.83
2023-09-21T18:27:11.456Z,24.74
2023-09-21T18:29:41.229Z,24.77
2023-09-21T18:32:12.409Z,24.76
2023-09-21T18:34:44.374Z,24.67
2023-09-21T18:37:14.702Z,24.66
2023-09-21T18:39:43.638Z,24.55
2023-09-21T18:42:12.810Z,24.45
2023-09-21T18:44:42.887Z,24.40
2023-09-21T18:47:13.068Z,24.34
2023-09-21T18:49:44.145Z,24.25
2023-09-21T18:52:14.726Z,24.18
2023-09-21T18:54:46.943Z,24.12
2023-09-21T18:57:16.381Z,24.02
2023-09-21T18:59:49.471Z,24.00
2023-09-21T19:02:19.795Z,23.95
2023-09-21T19:04:53.410Z,23.93
2023-09-21T19:07:24.336Z,23.91
2023-09-21T19:09:55.395Z,23.88
2023-09-21T19:12:25.043Z,23.87
2023-09-21T19:14:57.725Z,23.82
2023-09-21T19:17:30.392Z,23.67
2023-09-21T19:20:02.081Z,23.65
2023-09-21T19:22:33.265Z,23.69
2023-09-21T19:25:04.300Z,23.71
2023-09-21T19:27:33.793Z,23.67
2023-09-21T19:30:04.159Z,23.64
2023-09-21T19:32:34.187Z,23.75
2023-09-21T19:35:03.189Z,23.70
2023-09-21T19:37:34.557Z,23.73
2023-09-21T19:40:05.703Z,23.70
2023-09-21T19:42:39.353Z,23.67
2023-09-21T19:45:12.000Z,23.69
2023-09-21T19:47:41.571Z,23.69
2023-09-21T19:50:14.709Z,23.68
2023-09-21T19:52:46.140Z,23.64
2023-09-21T19:55:22.669Z,23.65
2023-09-21T19:57:59.779Z,23.66
2023-09-21T20:00:32.347Z,23.62
2023-09-21T20:03:04.121Z,23.61
2023-09-21T20:05:35.030Z,23.63
2023-09-21T20:08:06.713Z,23.59
2023-09-21T20:10:39.640Z,23.60
2023-09-21T20:13:09.759Z,23.53
2023-09-21T20:15:39.346Z,23.57
2023-09-21T20:18:09.142Z,23.56
2023-09-21T20:20:38.222Z,23.54
2023-09-21T20:23:09.722Z,23.53
2023-09-21T20:25:40.834Z,23.46
2023-09-21T20:28:10.373Z,23.47
2023-09-21T20:30:42.177Z,23.43
2023-09-21T20:33:11.305Z,23.42
2023-09-21T20:35:40.967Z,23.37
2023-09-21T20:38:12.911Z,23.38
2023-09-21T20:40:45.635Z,23.27
2023-09-21T20:43:17.369Z,23.28
2023-09-21T20:45:46.779Z,23.23
2023-09-21T20:48:41.267Z,23.26
2023-09-21T20:51:11.146Z,23.30
2023-09-21T20:53:46.299Z,23.18
2023-09-21T20:56:15.493Z,22.94
2023-09-21T21:00:10.383Z,22.12
2023-09-21T21:02:40.804Z,21.22
2023-09-21T21:05:11.233Z,20.77
2023-09-21T21:07:43.426Z,20.61
2023-09-21T21:10:13.181Z,20.08
2023-09-21T21:12:44.926Z,19.75
2023-09-21T21:15:15.698Z,19.50
2023-09-21T21:17:45.014Z,19.03
2023-09-21T21:20:15.518Z,18.89
2023-09-21T21:22:45.219Z,18.53
2023-09-21T21:25:15.659Z,18.40
2023-09-21T21:27:44.963Z,18.34
2023-09-21T21:30:16.955Z,18.19
2023-09-21T21:32:47.246Z,18.09
2023-09-21T21:35:18.256Z,18.05
2023-09-21T21:37:47.157Z,18.15
2023-09-21T21:40:16.995Z,18.38
2023-09-21T21:42:48.442Z,18.04
2023-09-21T21:45:19.115Z,17.99
2023-09-21T21:47:48.941Z,17.82
2023-09-21T21:50:18.328Z,17.73
2023-09-21T21:52:50.060Z,17.67
2023-09-21T21:55:20.243Z,17.77
2023-09-21T21:57:49.245Z,18.04
2023-09-21T22:00:27.732Z,18.08
2023-09-21T22:03:00.057Z,18.21
2023-09-21T22:05:31.951Z,17.92
2023-09-21T22:08:01.333Z,17.97
2023-09-21T22:10:30.854Z,18.26
2023-09-21T22:12:59.954Z,18.37
2023-09-21T22:15:34.884Z,18.47
2023-09-21T22:18:08.557Z,18.45
2023-09-21T22:20:55.008Z,18.47
2023-09-21T22:23:25.715Z,18.49
2023-09-21T22:25:55.178Z,18.33
2023-09-21T22:28:24.614Z,18.55
2023-09-21T22:30:55.529Z,18.57
2023-09-21T22:33:25.186Z,18.59
2023-09-21T22:35:55.823Z,18.61
2023-09-21T22:38:25.297Z,18.67
2023-09-21T22:40:59.843Z,18.76
2023-09-21T22:43:29.728Z,18.71
2023-09-21T22:46:07.703Z,18.72
2023-09-21T22:48:37.112Z,18.76
2023-09-21T22:51:06.627Z,18.89
2023-09-21T22:53:36.524Z,18.76
2023-09-21T22:56:06.295Z,18.78
2023-09-21T22:58:36.695Z,18.75
2023-09-21T23:01:10.640Z,18.69
2023-09-21T23:03:39.852Z,18.56
2023-09-21T23:06:09.375Z,18.62
2023-09-21T23:08:39.636Z,18.60
2023-09-21T23:11:10.688Z,18.46
2023-09-21T23:13:40.720Z,18.47
2023-09-21T23:16:12.451Z,18.41
2023-09-21T23:18:42.479Z,18.28
2023-09-21T23:21:11.868Z,18.23
2023-09-21T23:23:44.476Z,18.12
2023-09-21T23:26:17.533Z,17.98
2023-09-21T23:28:46.859Z,18.04
2023-09-21T23:31:18.054Z,18.02
2023-09-21T23:33:49.399Z,18.13
2023-09-21T23:36:19.356Z,18.10
2023-09-21T23:38:49.280Z,17.94
2023-09-21T23:41:19.659Z,18.00
2023-09-21T23:43:49.671Z,17.79
2023-09-21T23:46:21.336Z,17.85
2023-09-21T23:48:51.201Z,17.90
2023-09-21T23:51:20.271Z,17.96
2023-09-21T23:53:50.101Z,17.95
2023-09-21T23:56:21.491Z,17.98
2023-09-21T23:58:51.894Z,17.96
